createdAt,value
2023-04-16T00:00:23.275Z,8.5
2023-04-16T00:15:57.492Z,5.1
2023-04-16T00:31:31.887Z,4.8
2023-04-16T00:47:06.082Z,5.9
2023-04-16T01:02:40.412Z,4.4
2023-04-16T01:18:14.610Z,3.7
2023-04-16T01:33:48.626Z,3.9
2023-04-16T01:49:22.639Z,6.5
2023-04-16T02:04:56.659Z,5.6
2023-04-16T02:20:30.712Z,7
2023-04-16T02:36:04.774Z,10.3
2023-04-16T02:51:38.789Z,8.1
2023-04-16T03:07:12.913Z,11.7
2023-04-16T03:22:47.002Z,10.8
2023-04-16T03:38:20.986Z,11.1
2023-04-16T03:53:54.995Z,12.7
2023-04-16T04:09:29.012Z,9.9
2023-04-16T04:25:03.036Z,11.9
2023-04-16T04:40:37.067Z,8.8
2023-04-16T04:56:13.652Z,8.8
2023-04-16T05:11:47.653Z,13.8
2023-04-16T05:27:21.657Z,10.1
2023-04-16T05:42:55.688Z,18.9
2023-04-16T05:58:29.689Z,13.5
2023-04-16T06:14:03.671Z,13.7
2023-04-16T06:29:42.234Z,9.1
2023-04-16T06:45:16.328Z,8.2
2023-04-16T07:00:50.429Z,6.8
2023-04-16T07:16:24.722Z,9.3
2023-04-16T07:31:58.991Z,8.4
2023-04-16T07:47:33.234Z,9.3
2023-04-16T08:03:07.689Z,10.2
2023-04-16T08:18:42.230Z,9.4
2023-04-16T08:34:16.258Z,8.9
2023-04-16T08:49:50.400Z,8.1
2023-04-16T09:05:24.514Z,12.4
2023-04-16T09:20:58.587Z,14.6
2023-04-16T09:36:32.618Z,9.5
2023-04-16T09:52:06.680Z,7
2023-04-16T10:07:40.651Z,8.7
2023-04-16T10:23:14.637Z,10.4
2023-04-16T10:38:48.669Z,12.9
2023-04-16T10:54:22.697Z,10.8
2023-04-16T11:09:56.804Z,7.2
2023-04-16T11:25:30.858Z,7.3
2023-04-16T11:41:05.095Z,5
2023-04-16T11:56:39.148Z,8.2
2023-04-16T12:12:13.148Z,6.1
2023-04-16T12:27:47.406Z,9.1
2023-04-16T12:43:26.596Z,11.3
2023-04-16T12:59:00.558Z,12.6
2023-04-16T13:14:34.590Z,12.7
2023-04-16T13:30:08.844Z,13.9
2023-04-16T13:45:43.016Z,16.6
2023-04-16T14:01:17.332Z,11.4
2023-04-16T14:16:51.857Z,12.1
2023-04-16T14:32:26.029Z,18.9
2023-04-16T14:48:00.435Z,19.6
2023-04-16T15:03:35.069Z,17.3
2023-04-16T15:19:10.061Z,19.9
2023-04-16T15:34:44.798Z,20.3
2023-04-16T15:50:18.786Z,18.9
2023-04-16T16:05:52.782Z,20.2
2023-04-16T16:21:26.837Z,22.8
2023-04-16T16:37:00.876Z,19.5
2023-04-16T16:52:34.875Z,19.6
2023-04-16T17:08:08.895Z,16
2023-04-16T17:23:42.888Z,11.8
2023-04-16T17:39:17.280Z,12.7
2023-04-16T17:54:51.264Z,13.4
2023-04-16T18:10:25.291Z,12.7
2023-04-16T18:26:01.423Z,12.3
2023-04-16T18:41:36.284Z,10.2
2023-04-16T18:57:10.370Z,16.5
2023-04-16T19:12:44.430Z,13.8
2023-04-16T19:28:18.473Z,14.1
2023-04-16T19:43:52.500Z,15.2
2023-04-16T19:59:26.501Z,21.8
2023-04-16T20:15:00.503Z,19.8
2023-04-16T20:30:34.727Z,19.1
2023-04-16T20:46:09.096Z,17.5
2023-04-16T21:01:43.453Z,15.2
2023-04-16T21:17:17.567Z,18.6
2023-04-16T21:32:51.819Z,18.4
2023-04-16T21:48:26.051Z,20.6
2023-04-16T22:04:00.499Z,22.7
2023-04-16T22:19:34.366Z,15.9
2023-04-16T22:35:08.452Z,22.1
2023-04-16T22:50:42.431Z,22.2
2023-04-16T23:06:16.450Z,17.8
2023-04-16T23:21:50.431Z,17.8
2023-04-16T23:37:24.432Z,13.2
2023-04-16T23:52:58.437Z,14.7
